createdAt,value
2022-10-31T00:01:38.679Z,43.70
2022-10-31T00:04:07.051Z,41.90
2022-10-31T00:06:34.781Z,44.50
2022-10-31T00:09:05.269Z,42.50
2022-10-31T00:11:33.257Z,44.90
2022-10-31T00:14:01.727Z,42.80
2022-10-31T00:16:31.954Z,43.70
2022-10-31T00:19:03.680Z,52.00
2022-10-31T00:21:32.913Z,51.60
2022-10-31T00:24:01.333Z,52.60
2022-10-31T00:26:30.806Z,56.90
2022-10-31T00:28:59.906Z,61.60
2022-10-31T00:31:27.942Z,68.00
2022-10-31T00:33:56.062Z,84.10
2022-10-31T00:36:23.970Z,93.10
2022-10-31T00:38:51.783Z,89.00
2022-10-31T00:41:19.638Z,81.00
2022-10-31T00:43:47.996Z,81.00
2022-10-31T00:46:15.912Z,67.70
2022-10-31T00:48:43.746Z,62.60
2022-10-31T00:51:12.172Z,67.40
2022-10-31T00:53:39.889Z,57.40
2022-10-31T00:56:08.037Z,82.10
2022-10-31T00:58:35.740Z,72.80
2022-10-31T01:01:04.438Z,64.40
2022-10-31T01:03:34.290Z,63.50
2022-10-31T01:06:12.206Z,64.70
2022-10-31T01:08:40.914Z,56.60
2022-10-31T01:11:19.011Z,47.20
2022-10-31T01:13:48.017Z,54.60
2022-10-31T01:24:05.334Z,41.20
2022-10-31T01:26:34.205Z,42.20
2022-10-31T01:29:07.540Z,48.70
2022-10-31T01:31:39.768Z,48.40
2022-10-31T01:34:07.967Z,44.10
2022-10-31T01:36:38.682Z,46.20
2022-10-31T01:39:10.738Z,41.80
2022-10-31T01:41:59.282Z,42.70
2022-10-31T01:44:27.563Z,59.40
2022-10-31T01:47:27.233Z,43.40
2022-10-31T01:49:59.233Z,42.30
2022-10-31T01:53:03.200Z,53.00
2022-10-31T01:55:34.778Z,59.50
2022-10-31T01:58:21.610Z,70.40
2022-10-31T02:00:53.360Z,63.40
2022-10-31T02:03:21.763Z,66.60
2022-10-31T02:05:50.655Z,76.10
2022-10-31T02:08:40.357Z,98.20
2022-10-31T02:11:08.960Z,116.30
2022-10-31T02:13:36.809Z,130.40
2022-10-31T02:16:05.032Z,106.10
2022-10-31T02:18:32.925Z,96.80
2022-10-31T02:21:16.876Z,77.00
2022-10-31T02:23:54.834Z,68.60
2022-10-31T02:26:56.473Z,62.00
2022-10-31T02:29:47.130Z,60.50
2022-10-31T02:32:29.317Z,64.90
2022-10-31T02:35:22.008Z,56.70
2022-10-31T02:38:01.854Z,51.70
2022-10-31T02:40:41.031Z,50.30
2022-10-31T02:43:28.555Z,39.20
2022-10-31T02:46:11.110Z,43.30
2022-10-31T02:48:40.396Z,42.30
2022-10-31T02:51:09.533Z,40.30
2022-10-31T02:53:38.348Z,37.00
2022-10-31T02:56:18.705Z,35.50
2022-10-31T02:59:00.700Z,42.60
2022-10-31T03:01:54.980Z,35.80
2022-10-31T03:05:00.130Z,41.40
2022-10-31T03:07:58.687Z,41.60
2022-10-31T03:10:41.885Z,42.00
2022-10-31T03:13:19.903Z,38.90
2022-10-31T03:15:52.910Z,40.10
2022-10-31T03:18:30.846Z,56.40
2022-10-31T03:21:12.619Z,46.70
2022-10-31T03:23:41.591Z,43.50
2022-10-31T03:26:10.803Z,37.80
2022-10-31T03:28:57.313Z,43.20
2022-10-31T03:31:31.347Z,46.20
2022-10-31T03:34:01.347Z,43.80
2022-10-31T03:36:31.757Z,50.10
2022-10-31T03:39:02.486Z,37.10
2022-10-31T03:41:34.095Z,41.10
2022-10-31T03:44:10.245Z,49.60
2022-10-31T03:46:38.110Z,38.40
2022-10-31T03:49:05.990Z,38.90
2022-10-31T03:51:50.607Z,37.30
2022-10-31T03:54:43.813Z,43.00
2022-10-31T04:00:06.744Z,38.90
2022-10-31T04:02:39.583Z,50.00
2022-10-31T04:05:09.103Z,53.20
2022-10-31T04:07:41.853Z,56.40
2022-10-31T04:10:12.646Z,49.30
2022-10-31T04:12:40.915Z,55.40
2022-10-31T04:15:10.052Z,52.80
2022-10-31T04:17:40.548Z,43.80
2022-10-31T04:20:09.074Z,49.50
2022-10-31T04:22:36.897Z,46.40
2022-10-31T04:25:05.583Z,50.50
2022-10-31T04:27:33.321Z,51.10
2022-10-31T04:30:00.982Z,45.00
2022-10-31T04:32:28.871Z,40.90
2022-10-31T04:34:56.612Z,42.00
2022-10-31T04:37:24.383Z,42.90
2022-10-31T04:39:52.128Z,67.00
2022-10-31T04:42:19.879Z,56.70
2022-10-31T04:44:47.704Z,48.60
2022-10-31T04:47:15.476Z,59.90
2022-10-31T04:49:43.303Z,62.40
2022-10-31T04:52:11.248Z,62.40
2022-10-31T04:54:39.009Z,57.70
2022-10-31T04:57:06.729Z,56.90
2022-10-31T04:59:34.605Z,55.30
2022-10-31T05:02:02.376Z,56.30
2022-10-31T05:04:30.388Z,65.60
2022-10-31T05:06:58.171Z,52.20
2022-10-31T05:09:25.959Z,50.80
2022-10-31T05:11:53.711Z,49.40
2022-10-31T05:14:21.558Z,46.30
2022-10-31T05:16:49.488Z,48.10
2022-10-31T05:19:17.308Z,53.70
2022-10-31T05:21:45.166Z,43.10
2022-10-31T05:24:12.899Z,45.30
2022-10-31T05:26:40.649Z,41.70
2022-10-31T05:29:08.412Z,39.00
2022-10-31T05:31:36.165Z,42.50
2022-10-31T05:34:04.033Z,39.10
2022-10-31T05:36:31.793Z,49.80
2022-10-31T05:38:59.569Z,33.40
2022-10-31T05:41:27.295Z,38.60
2022-10-31T05:43:55.167Z,43.40
2022-10-31T05:46:22.941Z,35.90
2022-10-31T05:48:50.827Z,34.40
2022-10-31T05:51:19.580Z,32.00
2022-10-31T05:53:48.274Z,29.30
2022-10-31T05:56:16.017Z,31.40
2022-10-31T05:58:43.948Z,27.10
2022-10-31T06:01:12.099Z,31.00
2022-10-31T06:03:39.963Z,30.00
2022-10-31T06:06:07.829Z,30.80
2022-10-31T06:08:35.576Z,36.00
2022-10-31T06:11:03.337Z,41.40
2022-10-31T06:13:31.300Z,66.90
2022-10-31T06:15:59.008Z,61.50
2022-10-31T06:18:26.714Z,68.00
2022-10-31T06:20:54.441Z,52.70
2022-10-31T06:23:22.158Z,55.20
2022-10-31T06:25:51.641Z,52.40
2022-10-31T06:28:25.603Z,51.90
2022-10-31T06:30:53.322Z,55.20
2022-10-31T06:33:21.124Z,61.30
2022-10-31T06:35:49.016Z,60.10
2022-10-31T06:38:16.803Z,60.60
2022-10-31T06:40:44.548Z,58.40
2022-10-31T06:43:12.465Z,51.50
2022-10-31T06:45:40.196Z,50.40
2022-10-31T06:48:17.268Z,48.20
2022-10-31T06:50:46.084Z,45.50
2022-10-31T06:53:15.416Z,52.90
2022-10-31T06:55:43.792Z,47.30
2022-10-31T06:58:12.342Z,50.50
2022-10-31T07:00:40.203Z,51.40
2022-10-31T07:03:13.444Z,56.90
2022-10-31T07:05:41.373Z,61.80
2022-10-31T07:08:14.179Z,67.40
2022-10-31T07:10:52.988Z,51.40
2022-10-31T07:13:25.771Z,57.00
2022-10-31T07:18:22.976Z,51.00
2022-10-31T07:20:50.695Z,45.60
2022-10-31T07:23:18.439Z,47.70
2022-10-31T07:25:46.373Z,96.30
2022-10-31T07:28:14.332Z,83.60
2022-10-31T07:30:42.170Z,90.00
2022-10-31T07:33:10.198Z,84.10
2022-10-31T07:35:37.972Z,94.70
2022-10-31T07:38:11.326Z,70.80
2022-10-31T07:40:40.061Z,64.60
2022-10-31T07:43:10.078Z,63.40
2022-10-31T07:45:41.147Z,49.90
2022-10-31T07:48:08.893Z,42.80
2022-10-31T07:50:36.659Z,48.10
2022-10-31T07:53:12.898Z,53.00
2022-10-31T07:55:40.895Z,43.10
2022-10-31T07:58:17.893Z,49.40
2022-10-31T08:00:47.984Z,58.30
2022-10-31T08:03:19.028Z,46.00
2022-10-31T08:05:47.380Z,44.60
2022-10-31T08:08:16.220Z,44.10
2022-10-31T08:10:44.049Z,43.50
2022-10-31T08:13:14.094Z,44.30
2022-10-31T08:15:43.112Z,46.00
2022-10-31T08:18:15.739Z,39.20
2022-10-31T08:20:44.620Z,44.30
2022-10-31T08:23:13.329Z,34.50
2022-10-31T08:25:41.555Z,33.40
2022-10-31T08:28:11.687Z,29.40
2022-10-31T08:30:39.795Z,27.60
2022-10-31T08:33:14.600Z,29.70
2022-10-31T08:35:42.471Z,32.80
2022-10-31T08:38:12.546Z,27.00
2022-10-31T08:40:40.374Z,27.60
2022-10-31T08:43:16.137Z,26.20
2022-10-31T08:45:45.152Z,25.20
2022-10-31T08:48:17.109Z,26.20
2022-10-31T08:50:46.266Z,20.50
2022-10-31T08:53:17.376Z,25.30
2022-10-31T08:55:47.988Z,24.00
2022-10-31T08:58:18.789Z,23.10
2022-10-31T09:00:49.463Z,28.00
2022-10-31T09:03:21.748Z,22.90
2022-10-31T09:05:50.842Z,26.10
2022-10-31T09:08:18.761Z,24.10
2022-10-31T09:10:47.015Z,23.80
2022-10-31T09:13:19.020Z,23.30
2022-10-31T09:15:49.037Z,25.70
2022-10-31T09:18:20.198Z,22.90
2022-10-31T09:20:49.860Z,22.50
2022-10-31T09:23:21.548Z,24.50
2022-10-31T09:25:52.021Z,21.00
2022-10-31T09:28:23.470Z,21.60
2022-10-31T09:30:54.516Z,22.60
2022-10-31T09:33:23.734Z,21.70
2022-10-31T09:35:51.642Z,18.20
2022-10-31T09:38:21.677Z,24.60
2022-10-31T09:41:20.974Z,20.40
2022-10-31T09:44:16.010Z,21.80
2022-10-31T09:47:14.326Z,22.80
2022-10-31T09:50:13.546Z,20.50
2022-10-31T09:52:49.019Z,19.10
2022-10-31T09:55:37.714Z,21.80
2022-10-31T09:58:06.035Z,26.70
2022-10-31T10:00:34.408Z,25.40
2022-10-31T10:03:23.776Z,23.30
2022-10-31T10:06:06.184Z,20.70
2022-10-31T10:08:34.564Z,24.50
2022-10-31T10:11:28.277Z,21.90
2022-10-31T10:14:05.649Z,23.80
2022-10-31T10:16:55.808Z,27.70
2022-10-31T10:19:40.141Z,25.20
2022-10-31T10:22:36.933Z,23.80
2022-10-31T10:25:36.347Z,25.90
2022-10-31T10:28:27.355Z,27.30
2022-10-31T10:31:14.774Z,29.90
2022-10-31T10:34:03.480Z,20.00
2022-10-31T10:36:44.139Z,31.90
2022-10-31T10:39:37.964Z,29.40
2022-10-31T10:42:31.868Z,24.50
2022-10-31T10:45:19.208Z,22.10
2022-10-31T10:48:01.415Z,24.90
2022-10-31T10:50:37.261Z,26.00
2022-10-31T10:53:50.136Z,25.10
2022-10-31T10:56:42.377Z,24.50
2022-10-31T10:59:15.318Z,20.90
2022-10-31T11:01:43.841Z,23.40
2022-10-31T11:04:41.062Z,24.60
2022-10-31T11:07:11.741Z,25.40
2022-10-31T11:09:39.794Z,21.50
2022-10-31T11:12:20.831Z,25.30
2022-10-31T11:15:00.483Z,25.30
2022-10-31T11:17:39.740Z,29.10
2022-10-31T11:20:20.322Z,28.60
2022-10-31T11:22:49.742Z,22.00
2022-10-31T11:25:23.587Z,28.60
2022-10-31T11:28:13.645Z,23.30
2022-10-31T11:30:51.314Z,21.80
2022-10-31T11:33:30.681Z,23.40
2022-10-31T11:35:59.539Z,35.30
2022-10-31T11:38:35.437Z,32.60
2022-10-31T11:41:13.899Z,34.20
2022-10-31T11:43:54.716Z,27.10
2022-10-31T11:46:28.788Z,32.50
2022-10-31T11:48:57.039Z,22.60
2022-10-31T11:51:30.414Z,27.90
2022-10-31T11:54:02.949Z,26.40
2022-10-31T11:56:42.128Z,25.40
2022-10-31T11:59:29.391Z,26.00
2022-10-31T12:02:00.533Z,27.60
2022-10-31T12:04:36.199Z,28.50
2022-10-31T12:07:05.432Z,20.20
2022-10-31T12:09:38.659Z,23.80
2022-10-31T12:12:37.064Z,27.40
2022-10-31T12:15:55.397Z,27.70
2022-10-31T12:20:06.893Z,26.20
2022-10-31T12:23:36.812Z,28.00
2022-10-31T12:26:49.047Z,24.30
2022-10-31T12:30:44.593Z,25.70
2022-10-31T12:33:39.522Z,32.00
2022-10-31T12:36:57.014Z,29.20
2022-10-31T12:40:03.322Z,30.20
2022-10-31T12:42:48.806Z,26.80
2022-10-31T12:45:42.639Z,26.40
2022-10-31T12:48:25.657Z,30.10
2022-10-31T12:51:25.183Z,33.00
2022-10-31T12:54:11.922Z,29.60
2022-10-31T12:57:09.209Z,33.20
2022-10-31T12:59:42.352Z,26.60
2022-10-31T13:02:26.975Z,27.50
2022-10-31T13:05:16.517Z,31.50
2022-10-31T13:08:27.979Z,31.00
2022-10-31T13:11:32.905Z,28.50
2022-10-31T13:14:25.625Z,28.60
2022-10-31T13:16:59.349Z,29.90
2022-10-31T13:19:46.263Z,31.20
2022-10-31T13:22:25.125Z,29.90
2022-10-31T13:25:18.822Z,33.50
2022-10-31T13:28:00.280Z,31.70
2022-10-31T13:30:33.767Z,29.10
2022-10-31T13:33:17.836Z,29.20
2022-10-31T13:36:34.779Z,34.60
2022-10-31T13:39:24.692Z,37.70
2022-10-31T13:42:16.225Z,32.10
2022-10-31T13:44:44.201Z,31.50
2022-10-31T13:47:27.281Z,31.70
2022-10-31T13:50:23.204Z,26.90
2022-10-31T13:52:51.061Z,31.50
2022-10-31T13:55:40.801Z,31.90
2022-10-31T13:58:29.829Z,31.80
2022-10-31T14:01:04.425Z,28.10
2022-10-31T14:04:02.181Z,34.70
2022-10-31T14:06:23.723Z,31.70
2022-10-31T14:08:53.859Z,40.90
2022-10-31T14:11:32.969Z,35.10
2022-10-31T14:14:04.243Z,36.20
2022-10-31T14:16:33.091Z,32.50
2022-10-31T14:19:15.121Z,36.00
2022-10-31T14:21:47.930Z,32.70
2022-10-31T14:24:25.125Z,36.50
2022-10-31T14:27:20.530Z,35.00
2022-10-31T14:29:50.650Z,31.50
2022-10-31T14:32:25.430Z,33.80
2022-10-31T14:35:00.508Z,35.70
2022-10-31T14:37:47.198Z,33.10
2022-10-31T14:40:46.795Z,33.40
2022-10-31T14:43:40.613Z,33.50
2022-10-31T14:46:42.427Z,35.50
2022-10-31T14:50:12.496Z,35.10
2022-10-31T14:52:50.396Z,36.70
2022-10-31T14:55:18.871Z,34.80
2022-10-31T14:58:02.600Z,36.70
2022-10-31T15:00:32.490Z,32.30
2022-10-31T15:03:24.752Z,33.00
2022-10-31T15:05:59.712Z,35.30
2022-10-31T15:08:38.692Z,41.80
2022-10-31T15:11:26.451Z,33.40
2022-10-31T15:13:58.329Z,32.50
2022-10-31T15:16:35.485Z,44.20
2022-10-31T15:19:09.432Z,35.40
2022-10-31T15:21:41.454Z,33.80
2022-10-31T15:24:16.822Z,37.40
2022-10-31T15:26:49.832Z,41.80
2022-10-31T15:29:23.541Z,45.10
2022-10-31T15:32:00.149Z,37.00
2022-10-31T15:34:42.099Z,35.20
2022-10-31T15:37:22.108Z,41.30
2022-10-31T15:39:50.762Z,42.70
2022-10-31T15:43:08.448Z,48.80
2022-10-31T15:45:37.347Z,79.60
2022-10-31T15:48:17.947Z,77.80
2022-10-31T15:50:54.837Z,78.80
2022-10-31T15:53:45.753Z,91.20
2022-10-31T15:56:21.694Z,65.10
2022-10-31T15:58:52.730Z,68.90
2022-10-31T16:01:29.066Z,67.40
2022-10-31T16:04:22.367Z,80.50
2022-10-31T16:07:20.204Z,77.80
2022-10-31T16:10:01.864Z,68.70
2022-10-31T16:12:43.977Z,62.10
2022-10-31T16:15:18.895Z,60.60
2022-10-31T16:17:50.952Z,73.10
2022-10-31T16:20:33.166Z,70.70
2022-10-31T16:23:02.190Z,94.50
2022-10-31T16:25:39.381Z,130.10
2022-10-31T16:28:38.827Z,108.40
2022-10-31T16:31:15.741Z,91.40
2022-10-31T16:33:44.521Z,86.80
2022-10-31T16:36:36.000Z,80.20
2022-10-31T16:39:04.403Z,77.40
2022-10-31T16:41:35.294Z,68.30
2022-10-31T16:44:05.949Z,65.40
2022-10-31T16:46:33.717Z,68.60
2022-10-31T16:49:01.529Z,57.20
2022-10-31T16:51:29.211Z,70.10
2022-10-31T16:53:56.935Z,54.80
2022-10-31T16:56:29.447Z,52.70
2022-10-31T16:58:57.293Z,55.00
2022-10-31T17:01:25.355Z,59.80
2022-10-31T17:03:53.641Z,65.40
2022-10-31T17:06:21.397Z,65.00
2022-10-31T17:08:49.389Z,89.50
2022-10-31T17:11:21.113Z,139.20
2022-10-31T17:13:48.927Z,226.70
2022-10-31T17:16:16.773Z,380.20
2022-10-31T17:18:46.163Z,400.00
2022-10-31T17:21:26.507Z,382.50
2022-10-31T17:23:54.334Z,358.70
2022-10-31T17:26:22.256Z,305.60
2022-10-31T17:28:50.013Z,365.50
2022-10-31T17:31:30.023Z,363.30
2022-10-31T17:34:02.747Z,365.70
2022-10-31T17:36:33.433Z,484.70
2022-10-31T17:39:07.609Z,401.50
2022-10-31T17:41:35.469Z,352.50
2022-10-31T17:44:03.533Z,318.50
2022-10-31T17:46:31.364Z,287.90
2022-10-31T17:49:01.658Z,291.20
2022-10-31T17:51:29.652Z,318.70
2022-10-31T17:53:58.759Z,372.80
2022-10-31T17:56:26.738Z,295.60
2022-10-31T17:58:57.171Z,250.20
2022-10-31T18:01:25.374Z,217.90
2022-10-31T18:03:53.546Z,193.30
2022-10-31T18:06:21.524Z,238.70
2022-10-31T18:08:49.302Z,242.40
2022-10-31T18:11:21.104Z,399.40
2022-10-31T18:13:56.401Z,387.50
2022-10-31T18:16:25.601Z,356.60
2022-10-31T18:18:58.679Z,378.50
2022-10-31T18:21:26.728Z,343.60
2022-10-31T18:23:59.529Z,317.30
2022-10-31T18:26:28.401Z,322.10
2022-10-31T18:28:56.472Z,305.50
2022-10-31T18:31:25.204Z,296.40
2022-10-31T18:33:54.747Z,261.80
2022-10-31T18:36:23.434Z,214.10
2022-10-31T18:38:51.216Z,217.80
2022-10-31T18:41:19.214Z,249.00
2022-10-31T18:43:47.258Z,319.70
2022-10-31T18:46:17.150Z,241.80
2022-10-31T18:48:48.500Z,215.20
2022-10-31T18:51:18.460Z,225.70
2022-10-31T18:53:55.343Z,196.90
2022-10-31T18:56:23.952Z,285.60
2022-10-31T18:58:52.152Z,286.70
2022-10-31T19:01:21.928Z,238.30
2022-10-31T19:03:54.499Z,235.80
2022-10-31T19:06:24.456Z,231.50
2022-10-31T19:08:58.908Z,216.90
2022-10-31T19:11:27.719Z,213.80
2022-10-31T19:13:58.255Z,197.60
2022-10-31T19:16:26.457Z,204.80
2022-10-31T19:18:56.341Z,201.50
2022-10-31T19:21:24.720Z,199.90
2022-10-31T19:23:54.514Z,183.40
2022-10-31T19:26:22.433Z,210.30
2022-10-31T19:28:50.455Z,231.10
2022-10-31T19:31:19.102Z,234.10
2022-10-31T19:33:47.351Z,223.20
2022-10-31T19:36:18.910Z,220.70
2022-10-31T19:38:51.447Z,211.70
2022-10-31T19:41:26.287Z,177.10
2022-10-31T19:43:55.160Z,187.90
2022-10-31T19:49:12.428Z,170.80
2022-10-31T19:51:40.389Z,165.60
2022-10-31T19:54:08.477Z,161.30
2022-10-31T19:56:36.357Z,125.30
2022-10-31T19:59:04.405Z,113.40
2022-10-31T20:01:32.437Z,121.00
2022-10-31T20:04:00.521Z,127.70
2022-10-31T20:06:34.427Z,136.90
2022-10-31T20:09:13.787Z,133.90
2022-10-31T20:11:45.679Z,151.40
2022-10-31T20:14:17.897Z,132.80
2022-10-31T20:16:46.284Z,121.40
2022-10-31T20:19:14.187Z,97.50
2022-10-31T20:21:42.168Z,112.00
2022-10-31T20:24:11.548Z,100.50
2022-10-31T20:26:41.058Z,85.70
2022-10-31T20:29:13.646Z,97.70
2022-10-31T20:31:42.204Z,113.10
2022-10-31T20:34:11.044Z,119.90
2022-10-31T20:36:38.804Z,98.70
2022-10-31T20:39:06.590Z,76.10
2022-10-31T20:41:40.636Z,91.20
2022-10-31T20:44:08.797Z,91.30
2022-10-31T20:46:36.642Z,76.40
2022-10-31T20:49:04.528Z,78.50
2022-10-31T20:51:32.352Z,80.00
2022-10-31T20:54:00.935Z,78.90
2022-10-31T20:56:29.348Z,79.30
2022-10-31T20:58:57.747Z,72.90
2022-10-31T21:01:30.770Z,64.00
2022-10-31T21:03:59.437Z,76.90
2022-10-31T21:06:28.407Z,74.30
2022-10-31T21:08:57.632Z,72.60
2022-10-31T21:11:27.301Z,66.50
2022-10-31T21:13:55.365Z,64.80
2022-10-31T21:16:28.654Z,59.70
2022-10-31T21:18:57.343Z,58.10
2022-10-31T21:21:32.771Z,65.50
2022-10-31T21:24:08.572Z,57.60
2022-10-31T21:26:40.609Z,71.30
2022-10-31T21:29:10.208Z,52.40
2022-10-31T21:31:40.192Z,53.00
2022-10-31T21:34:09.545Z,67.70
2022-10-31T21:36:37.788Z,69.90
2022-10-31T21:39:08.097Z,63.50
2022-10-31T21:41:36.137Z,80.30
2022-10-31T21:44:04.833Z,64.70
2022-10-31T21:46:33.893Z,65.00
2022-10-31T21:49:03.772Z,57.70
2022-10-31T21:51:34.783Z,59.20
2022-10-31T21:54:22.593Z,52.60
2022-10-31T21:56:51.773Z,71.20
2022-10-31T21:59:20.350Z,54.40
2022-10-31T22:01:49.053Z,52.10
2022-10-31T22:04:18.239Z,57.20
2022-10-31T22:06:46.175Z,64.40
2022-10-31T22:09:16.105Z,55.50
2022-10-31T22:11:44.103Z,50.30
2022-10-31T22:14:14.255Z,57.90
2022-10-31T22:16:42.701Z,60.80
2022-10-31T22:19:13.641Z,58.30
2022-10-31T22:21:47.396Z,57.40
2022-10-31T22:24:18.607Z,53.80
2022-10-31T22:26:46.474Z,55.10
2022-10-31T22:29:19.824Z,55.10
2022-10-31T22:31:53.373Z,63.80
2022-10-31T22:34:25.407Z,63.30
2022-10-31T22:36:55.249Z,62.60
2022-10-31T22:39:23.182Z,59.90
2022-10-31T22:41:51.165Z,59.50
2022-10-31T22:44:19.127Z,54.60
2022-10-31T22:46:47.135Z,52.20
2022-10-31T22:49:15.569Z,55.10
2022-10-31T22:51:44.207Z,65.20
2022-10-31T22:54:17.908Z,52.90
2022-10-31T22:56:46.639Z,54.10
2022-10-31T22:59:16.388Z,60.30
2022-10-31T23:01:45.958Z,61.90
2022-10-31T23:04:16.264Z,59.30
2022-10-31T23:06:45.334Z,65.80
2022-10-31T23:09:16.233Z,74.20
2022-10-31T23:11:44.782Z,70.70
2022-10-31T23:14:20.751Z,60.00
2022-10-31T23:16:54.418Z,61.90
2022-10-31T23:19:28.817Z,68.20
2022-10-31T23:22:04.137Z,76.30
2022-10-31T23:24:36.773Z,77.70
2022-10-31T23:29:54.523Z,71.40
2022-10-31T23:32:29.016Z,56.70
2022-10-31T23:35:00.419Z,55.30
2022-10-31T23:37:30.920Z,61.40
2022-10-31T23:39:58.809Z,64.40
2022-10-31T23:42:27.761Z,82.90
2022-10-31T23:44:56.041Z,61.40
2022-10-31T23:47:24.085Z,55.50
2022-10-31T23:49:51.850Z,59.60
2022-10-31T23:52:19.865Z,56.40
2022-10-31T23:54:47.954Z,61.80
2022-10-31T23:57:16.828Z,56.50
2022-10-31T23:59:44.811Z,56.90
